createdAt,value
2023-11-18T00:01:48.415Z,6.70
2023-11-18T00:04:35.672Z,6.70
2023-11-18T00:07:23.135Z,6.80
2023-11-18T00:10:11.342Z,6.80
2023-11-18T00:12:58.613Z,6.80
2023-11-18T00:15:47.289Z,6.80
2023-11-18T00:18:35.547Z,6.80
2023-11-18T00:21:22.944Z,6.80
2023-11-18T00:24:10.287Z,6.80
2023-11-18T00:26:57.505Z,6.80
2023-11-18T00:29:47.508Z,6.90
2023-11-18T00:32:35.150Z,6.90
2023-11-18T00:35:22.425Z,6.90
2023-11-18T00:38:09.700Z,6.80
2023-11-18T00:40:57.075Z,6.90
2023-11-18T00:43:44.357Z,6.80
2023-11-18T00:46:31.813Z,6.80
2023-11-18T00:49:19.469Z,6.80
2023-11-18T00:52:07.123Z,6.90
2023-11-18T00:54:54.346Z,6.90
2023-11-18T00:57:41.614Z,6.90
2023-11-18T01:00:29.007Z,6.90
2023-11-18T01:03:16.309Z,6.90
2023-11-18T01:06:04.162Z,6.90
2023-11-18T01:08:51.365Z,6.90
2023-11-18T01:11:38.578Z,6.90
2023-11-18T01:14:25.796Z,6.80
2023-11-18T01:17:15.037Z,6.80
2023-11-18T01:20:07.313Z,6.80
2023-11-18T01:22:54.724Z,6.80
2023-11-18T01:25:42.718Z,6.70
2023-11-18T01:28:30.736Z,6.70
2023-11-18T01:31:18.712Z,6.60
2023-11-18T01:34:06.050Z,6.50
2023-11-18T01:36:54.255Z,6.40
2023-11-18T01:39:41.565Z,6.30
2023-11-18T01:42:28.765Z,6.30
2023-11-18T01:45:17.650Z,6.20
2023-11-18T01:48:06.935Z,6.10
2023-11-18T01:50:57.257Z,6.00
2023-11-18T01:53:45.333Z,5.90
2023-11-18T01:56:33.750Z,6.00
2023-11-18T01:59:21.116Z,5.90
2023-11-18T02:02:08.861Z,6.00
2023-11-18T02:04:56.743Z,6.00
2023-11-18T02:07:44.906Z,6.00
2023-11-18T02:10:34.181Z,6.10
2023-11-18T02:13:29.019Z,6.10
2023-11-18T02:16:18.838Z,6.10
2023-11-18T02:19:17.229Z,6.10
2023-11-18T02:22:08.292Z,6.10
2023-11-18T02:24:56.340Z,6.00
2023-11-18T02:27:44.228Z,5.90
2023-11-18T02:30:32.252Z,5.90
2023-11-18T02:33:35.068Z,5.80
2023-11-18T02:36:37.429Z,5.70
2023-11-18T02:39:39.930Z,5.70
2023-11-18T02:42:28.805Z,5.60
2023-11-18T02:45:19.379Z,5.60
2023-11-18T02:48:08.034Z,5.60
2023-11-18T02:50:55.613Z,5.50
2023-11-18T02:53:46.353Z,5.50
2023-11-18T02:56:33.936Z,5.50
2023-11-18T02:59:21.190Z,5.50
2023-11-18T03:02:08.486Z,5.50
2023-11-18T03:04:55.870Z,5.50
2023-11-18T03:07:45.757Z,5.50
2023-11-18T03:10:36.258Z,5.50
2023-11-18T03:13:24.258Z,5.50
2023-11-18T03:16:14.029Z,5.60
2023-11-18T03:19:02.600Z,5.60
2023-11-18T03:21:54.604Z,5.70
2023-11-18T03:24:41.960Z,5.80
2023-11-18T03:27:29.250Z,5.80
2023-11-18T03:30:18.183Z,5.90
2023-11-18T03:33:05.713Z,6.00
2023-11-18T03:35:52.941Z,6.10
2023-11-18T03:38:40.191Z,6.20
2023-11-18T03:41:27.795Z,6.20
2023-11-18T03:44:15.036Z,6.30
2023-11-18T03:47:04.187Z,6.30
2023-11-18T03:49:52.114Z,6.30
2023-11-18T03:52:39.598Z,6.40
2023-11-18T03:55:30.724Z,6.40
2023-11-18T03:58:17.979Z,6.40
2023-11-18T04:01:06.387Z,6.30
2023-11-18T04:03:53.681Z,6.30
2023-11-18T04:06:40.928Z,6.30
2023-11-18T04:09:28.644Z,6.30
2023-11-18T04:12:17.354Z,6.20
2023-11-18T04:15:08.852Z,6.20
2023-11-18T04:17:56.113Z,6.20
2023-11-18T04:20:43.808Z,6.20
2023-11-18T04:23:31.664Z,6.20
2023-11-18T04:26:18.934Z,6.30
2023-11-18T04:29:08.238Z,6.30
2023-11-18T04:31:55.946Z,6.30
2023-11-18T04:34:44.003Z,6.30
2023-11-18T04:37:31.366Z,6.30
2023-11-18T04:40:18.799Z,6.30
2023-11-18T04:43:06.025Z,6.30
2023-11-18T04:45:53.982Z,6.30
2023-11-18T04:48:42.590Z,6.30
2023-11-18T04:51:30.572Z,6.20
2023-11-18T04:54:17.799Z,6.30
2023-11-18T04:57:05.277Z,6.30
2023-11-18T04:59:52.604Z,6.20
2023-11-18T05:02:40.858Z,6.20
2023-11-18T05:05:28.174Z,6.10
2023-11-18T05:08:20.844Z,6.00
2023-11-18T05:11:08.209Z,5.90
2023-11-18T05:13:57.562Z,5.80
2023-11-18T05:16:45.296Z,5.80
2023-11-18T05:19:32.618Z,5.70
2023-11-18T05:22:21.665Z,5.70
2023-11-18T05:25:11.140Z,5.70
2023-11-18T05:27:58.579Z,5.60
2023-11-18T05:30:45.935Z,5.60
2023-11-18T05:33:35.605Z,5.60
2023-11-18T05:36:28.884Z,5.50
2023-11-18T05:39:16.302Z,5.50
2023-11-18T05:42:03.606Z,5.50
2023-11-18T05:44:58.911Z,5.50
2023-11-18T05:47:46.187Z,5.50
2023-11-18T05:50:33.792Z,5.40
2023-11-18T05:53:22.402Z,5.40
2023-11-18T05:56:10.200Z,5.40
2023-11-18T05:58:57.616Z,5.40
2023-11-18T06:01:44.929Z,5.50
2023-11-18T06:04:32.203Z,5.50
2023-11-18T06:07:20.445Z,5.50
2023-11-18T06:10:08.448Z,5.60
2023-11-18T06:12:56.981Z,5.60
2023-11-18T06:15:44.472Z,5.70
2023-11-18T06:18:33.412Z,5.70
2023-11-18T06:21:25.699Z,5.70
2023-11-18T06:24:14.852Z,5.70
2023-11-18T06:27:02.143Z,5.80
2023-11-18T06:29:50.826Z,5.80
2023-11-18T06:32:38.111Z,5.80
2023-11-18T06:35:26.296Z,5.80
2023-11-18T06:38:14.344Z,5.90
2023-11-18T06:41:06.769Z,5.90
2023-11-18T06:43:58.077Z,6.00
2023-11-18T06:46:46.925Z,6.30
2023-11-18T06:49:38.186Z,6.40
2023-11-18T06:52:25.536Z,6.60
2023-11-18T06:55:14.738Z,6.80
2023-11-18T06:58:02.021Z,7.10
2023-11-18T07:00:49.566Z,7.20
2023-11-18T07:03:37.446Z,7.10
2023-11-18T07:06:27.603Z,6.90
2023-11-18T07:09:19.001Z,6.70
2023-11-18T07:12:07.316Z,6.70
2023-11-18T07:14:55.242Z,6.60
2023-11-18T07:17:43.773Z,6.50
2023-11-18T07:20:31.072Z,6.40
2023-11-18T07:23:19.628Z,6.40
2023-11-18T07:26:07.199Z,6.40
2023-11-18T07:28:54.670Z,6.40
2023-11-18T07:31:41.981Z,6.40
2023-11-18T07:34:29.277Z,6.30
2023-11-18T07:37:17.032Z,6.30
2023-11-18T07:40:06.367Z,6.30
2023-11-18T07:42:53.559Z,6.40
2023-11-18T07:45:41.843Z,6.40
2023-11-18T07:48:29.378Z,6.40
2023-11-18T07:51:16.878Z,6.40
2023-11-18T07:54:07.295Z,6.40
2023-11-18T07:56:55.293Z,6.50
2023-11-18T07:59:42.556Z,6.50
2023-11-18T08:02:29.837Z,6.50
2023-11-18T08:05:18.180Z,6.60
2023-11-18T08:08:06.613Z,6.60
2023-11-18T08:10:56.487Z,6.60
2023-11-18T08:13:45.068Z,6.60
2023-11-18T08:16:33.974Z,6.70
2023-11-18T08:19:25.866Z,6.80
2023-11-18T08:22:13.140Z,6.90
2023-11-18T08:25:00.339Z,6.90
2023-11-18T08:27:47.573Z,7.00
2023-11-18T08:30:40.231Z,7.00
2023-11-18T08:33:27.598Z,7.00
2023-11-18T08:36:14.920Z,7.00
2023-11-18T08:39:02.722Z,7.10
2023-11-18T08:41:51.961Z,7.20
2023-11-18T08:44:40.003Z,7.20
2023-11-18T08:47:28.503Z,7.30
2023-11-18T08:50:25.500Z,7.30
2023-11-18T08:53:21.720Z,7.50
2023-11-18T08:56:15.108Z,7.50
2023-11-18T08:59:02.651Z,7.50
2023-11-18T09:01:50.595Z,7.60
2023-11-18T09:04:37.971Z,7.70
2023-11-18T09:07:25.596Z,7.80
2023-11-18T09:10:13.760Z,7.90
2023-11-18T09:13:02.440Z,8.00
2023-11-18T09:15:50.985Z,8.10
2023-11-18T09:18:43.764Z,8.20
2023-11-18T09:21:33.878Z,8.30
2023-11-18T09:24:26.230Z,8.50
2023-11-18T09:27:13.870Z,8.60
2023-11-18T09:30:02.385Z,8.70
2023-11-18T09:32:49.875Z,8.90
2023-11-18T09:35:38.370Z,8.80
2023-11-18T09:38:41.510Z,9.00
2023-11-18T09:41:30.493Z,9.10
2023-11-18T09:44:19.729Z,9.20
2023-11-18T09:47:11.148Z,9.20
2023-11-18T09:50:04.063Z,9.20
2023-11-18T09:53:00.079Z,9.50
2023-11-18T09:56:03.659Z,9.50
2023-11-18T09:59:00.601Z,9.40
2023-11-18T10:01:54.892Z,9.30
2023-11-18T10:04:44.064Z,9.10
2023-11-18T10:07:34.159Z,9.10
2023-11-18T10:10:22.443Z,9.00
2023-11-18T10:13:22.558Z,8.90
2023-11-18T10:16:10.318Z,8.90
2023-11-18T10:19:02.288Z,8.90
2023-11-18T10:21:52.202Z,9.10
2023-11-18T10:24:45.662Z,9.20
2023-11-18T10:27:35.393Z,9.40
2023-11-18T10:30:22.894Z,9.50
2023-11-18T10:33:12.763Z,9.70
2023-11-18T10:36:05.091Z,9.70
2023-11-18T10:38:57.263Z,9.60
2023-11-18T10:41:47.175Z,9.60
2023-11-18T10:44:34.429Z,9.70
2023-11-18T10:47:21.894Z,9.90
2023-11-18T10:50:11.624Z,9.90
2023-11-18T10:53:04.386Z,10.10
2023-11-18T10:55:51.716Z,9.90
2023-11-18T10:58:42.412Z,9.90
2023-11-18T11:01:44.339Z,9.80
2023-11-18T11:04:44.915Z,9.80
2023-11-18T11:07:33.848Z,9.90
2023-11-18T11:10:26.733Z,10.00
2023-11-18T11:13:16.382Z,10.00
2023-11-18T11:16:07.050Z,10.00
2023-11-18T11:18:56.709Z,10.00
2023-11-18T11:21:54.622Z,9.90
2023-11-18T11:25:10.816Z,9.80
2023-11-18T11:28:11.616Z,9.70
2023-11-18T11:31:33.382Z,9.60
2023-11-18T11:34:24.896Z,9.60
2023-11-18T11:37:12.899Z,9.60
2023-11-18T11:40:00.326Z,9.60
2023-11-18T11:42:49.083Z,9.70
2023-11-18T11:45:37.618Z,9.80
2023-11-18T11:48:29.515Z,9.90
2023-11-18T11:51:31.397Z,10.00
2023-11-18T11:54:24.879Z,9.90
2023-11-18T11:57:15.635Z,9.60
2023-11-18T12:00:16.759Z,9.60
2023-11-18T12:03:07.297Z,9.50
2023-11-18T12:05:57.996Z,9.50
2023-11-18T12:08:45.564Z,9.50
2023-11-18T12:11:47.443Z,9.50
2023-11-18T12:14:51.954Z,9.50
2023-11-18T12:18:01.302Z,9.50
2023-11-18T12:21:05.303Z,9.50
2023-11-18T12:24:23.774Z,9.50
2023-11-18T12:27:14.293Z,9.50
2023-11-18T12:30:01.484Z,9.60
2023-11-18T12:33:02.592Z,9.70
2023-11-18T12:35:54.191Z,9.80
2023-11-18T12:39:15.003Z,9.80
2023-11-18T12:42:08.137Z,9.80
2023-11-18T12:45:34.203Z,9.80
2023-11-18T12:48:28.073Z,9.80
2023-11-18T12:51:20.641Z,9.70
2023-11-18T12:54:08.738Z,9.60
2023-11-18T12:56:56.786Z,9.40
2023-11-18T12:59:44.869Z,9.40
2023-11-18T13:02:33.745Z,9.50
2023-11-18T13:05:21.735Z,9.40
2023-11-18T13:08:09.053Z,9.40
2023-11-18T13:10:56.419Z,9.40
2023-11-18T13:13:44.444Z,9.40
2023-11-18T13:16:31.735Z,9.30
2023-11-18T13:19:29.136Z,9.20
2023-11-18T13:22:20.204Z,9.20
2023-11-18T13:25:07.773Z,9.20
2023-11-18T13:27:55.771Z,9.20
2023-11-18T13:30:44.067Z,9.20
2023-11-18T13:33:31.573Z,9.30
2023-11-18T13:36:18.997Z,9.10
2023-11-18T13:39:08.342Z,9.20
2023-11-18T13:41:55.789Z,9.00
2023-11-18T13:44:44.082Z,9.00
2023-11-18T13:47:33.118Z,9.00
2023-11-18T13:50:21.302Z,8.90
2023-11-18T13:53:09.537Z,8.90
2023-11-18T13:55:57.080Z,8.90
2023-11-18T13:58:46.598Z,8.80
2023-11-18T14:01:34.865Z,8.80
2023-11-18T14:04:34.777Z,8.70
2023-11-18T14:07:27.307Z,8.70
2023-11-18T14:10:14.792Z,8.70
2023-11-18T14:13:14.417Z,8.60
2023-11-18T14:16:03.412Z,8.40
2023-11-18T14:18:50.988Z,8.40
2023-11-18T14:21:38.418Z,8.30
2023-11-18T14:24:33.177Z,8.30
2023-11-18T14:27:20.567Z,8.30
2023-11-18T14:30:10.494Z,8.10
2023-11-18T14:32:57.969Z,8.00
2023-11-18T14:35:47.272Z,7.80
2023-11-18T14:38:35.646Z,7.80
2023-11-18T14:41:30.205Z,7.60
2023-11-18T14:44:19.814Z,7.60
2023-11-18T14:47:08.440Z,7.50
2023-11-18T14:49:57.943Z,7.40
2023-11-18T14:52:46.981Z,7.40
2023-11-18T14:55:34.468Z,7.30
2023-11-18T14:58:25.066Z,7.30
2023-11-18T15:01:17.036Z,7.20
2023-11-18T15:04:07.257Z,7.10
2023-11-18T15:06:54.714Z,7.00
2023-11-18T15:09:43.054Z,6.90
2023-11-18T15:12:31.556Z,6.90
2023-11-18T15:15:21.939Z,6.80
2023-11-18T15:18:13.939Z,6.80
2023-11-18T15:21:05.313Z,6.80
2023-11-18T15:23:54.114Z,6.70
2023-11-18T15:26:41.387Z,6.70
2023-11-18T15:29:39.668Z,6.60
2023-11-18T15:32:28.699Z,6.60
2023-11-18T15:35:17.919Z,6.60
2023-11-18T15:38:10.194Z,6.50
2023-11-18T15:40:59.827Z,6.50
2023-11-18T15:43:47.209Z,6.50
2023-11-18T15:46:39.459Z,6.40
2023-11-18T15:49:26.817Z,6.40
2023-11-18T15:52:18.690Z,6.40
2023-11-18T15:55:11.057Z,6.40
2023-11-18T15:57:58.582Z,6.40
2023-11-18T16:00:48.773Z,6.30
2023-11-18T16:03:36.203Z,6.30
2023-11-18T16:06:23.468Z,6.30
2023-11-18T16:09:10.705Z,6.30
2023-11-18T16:11:57.911Z,6.30
2023-11-18T16:14:47.023Z,6.30
2023-11-18T16:17:35.747Z,6.20
2023-11-18T16:20:28.230Z,6.20
2023-11-18T16:23:15.547Z,6.20
2023-11-18T16:26:02.975Z,6.10
2023-11-18T16:28:50.254Z,6.10
2023-11-18T16:31:37.730Z,6.10
2023-11-18T16:34:26.625Z,6.10
2023-11-18T16:37:16.945Z,6.00
2023-11-18T16:40:04.479Z,6.00
2023-11-18T16:42:57.092Z,5.90
2023-11-18T16:45:44.932Z,5.90
2023-11-18T16:48:32.605Z,5.90
2023-11-18T16:51:19.969Z,5.90
2023-11-18T16:54:07.375Z,5.80
2023-11-18T16:56:54.892Z,5.80
2023-11-18T16:59:42.176Z,5.80
2023-11-18T17:02:29.498Z,5.70
2023-11-18T17:05:17.782Z,5.70
2023-11-18T17:08:06.577Z,5.70
2023-11-18T17:10:55.053Z,5.60
2023-11-18T17:13:42.501Z,5.60
2023-11-18T17:16:29.815Z,5.60
2023-11-18T17:19:17.153Z,5.60
2023-11-18T17:22:06.058Z,5.50
2023-11-18T17:24:55.516Z,5.50
2023-11-18T17:27:44.797Z,5.50
2023-11-18T17:30:36.005Z,5.50
2023-11-18T17:33:23.328Z,5.40
2023-11-18T17:36:10.644Z,5.40
2023-11-18T17:38:58.161Z,5.40
2023-11-18T17:41:45.509Z,5.40
2023-11-18T17:44:33.810Z,5.40
2023-11-18T17:47:21.173Z,5.40
2023-11-18T17:50:10.522Z,5.50
2023-11-18T17:52:58.609Z,5.60
2023-11-18T17:55:47.812Z,5.70
2023-11-18T17:58:35.146Z,5.70
2023-11-18T18:01:24.665Z,5.80
2023-11-18T18:04:13.263Z,6.00
2023-11-18T18:07:23.967Z,6.00
2023-11-18T18:10:13.308Z,6.10
2023-11-18T18:13:01.485Z,6.20
2023-11-18T18:15:49.364Z,6.20
2023-11-18T18:18:36.641Z,6.30
2023-11-18T18:21:23.892Z,6.40
2023-11-18T18:24:12.216Z,6.40
2023-11-18T18:26:59.533Z,6.40
2023-11-18T18:29:46.928Z,6.50
2023-11-18T18:32:34.435Z,6.60
2023-11-18T18:35:21.973Z,6.60
2023-11-18T18:38:09.430Z,6.70
2023-11-18T18:40:58.352Z,6.70
2023-11-18T18:43:45.777Z,6.70
2023-11-18T18:46:33.137Z,6.70
2023-11-18T18:49:20.376Z,6.60
2023-11-18T18:52:07.721Z,6.60
2023-11-18T18:54:55.147Z,6.50
2023-11-18T18:57:43.501Z,6.50
2023-11-18T19:00:30.698Z,6.40
2023-11-18T19:03:18.067Z,6.30
2023-11-18T19:06:06.006Z,6.30
2023-11-18T19:08:53.234Z,6.20
2023-11-18T19:11:40.433Z,6.10
2023-11-18T19:14:27.809Z,6.00
2023-11-18T19:17:15.130Z,5.90
2023-11-18T19:20:07.577Z,5.80
2023-11-18T19:22:56.531Z,5.70
2023-11-18T19:25:43.784Z,5.70
2023-11-18T19:28:37.121Z,5.60
2023-11-18T19:31:25.012Z,5.50
2023-11-18T19:34:12.336Z,5.50
2023-11-18T19:37:11.062Z,5.40
2023-11-18T19:39:59.500Z,5.40
2023-11-18T19:42:46.856Z,5.40
2023-11-18T19:45:34.535Z,5.40
2023-11-18T19:48:21.981Z,5.40
2023-11-18T19:51:11.822Z,5.40
2023-11-18T19:53:59.720Z,5.40
2023-11-18T19:56:47.207Z,5.30
2023-11-18T19:59:34.618Z,5.30
2023-11-18T20:02:22.312Z,5.20
2023-11-18T20:05:12.645Z,5.20
2023-11-18T20:08:00.245Z,5.10
2023-11-18T20:10:48.609Z,5.10
2023-11-18T20:13:39.343Z,5.00
2023-11-18T20:16:26.841Z,5.00
2023-11-18T20:19:14.147Z,4.90
2023-11-18T20:22:01.592Z,4.80
2023-11-18T20:24:48.838Z,4.80
2023-11-18T20:27:36.616Z,4.80
2023-11-18T20:30:23.877Z,4.70
2023-11-18T20:33:11.265Z,4.70
2023-11-18T20:36:00.019Z,4.60
2023-11-18T20:38:50.216Z,4.60
2023-11-18T20:41:37.500Z,4.60
2023-11-18T20:44:24.825Z,4.50
2023-11-18T20:47:12.116Z,4.50
2023-11-18T20:49:59.446Z,4.50
2023-11-18T20:52:46.920Z,4.50
2023-11-18T20:55:34.806Z,4.50
2023-11-18T20:58:22.587Z,4.40
2023-11-18T21:01:42.511Z,4.40
2023-11-18T21:04:30.636Z,4.40
2023-11-18T21:07:23.674Z,4.30
2023-11-18T21:10:17.354Z,4.30
2023-11-18T21:13:16.373Z,4.30
2023-11-18T21:19:12.077Z,4.20
2023-11-18T21:22:05.969Z,4.20
2023-11-18T21:24:54.631Z,4.20
2023-11-18T21:27:42.877Z,4.10
2023-11-18T21:30:30.154Z,4.10
2023-11-18T21:33:17.407Z,4.10
2023-11-18T21:36:05.101Z,4.10
2023-11-18T21:38:54.603Z,4.10
2023-11-18T21:41:42.413Z,4.10
2023-11-18T21:44:29.650Z,4.10
2023-11-18T21:47:19.337Z,4.00
2023-11-18T21:50:45.826Z,4.00
2023-11-18T21:53:33.514Z,4.00
2023-11-18T21:56:21.547Z,4.00
2023-11-18T21:59:08.885Z,4.00
2023-11-18T22:01:56.317Z,4.00
2023-11-18T22:04:44.248Z,3.90
2023-11-18T22:07:33.646Z,3.90
2023-11-18T22:10:22.623Z,3.90
2023-11-18T22:13:09.920Z,3.90
2023-11-18T22:15:57.110Z,3.90
2023-11-18T22:18:45.121Z,3.90
2023-11-18T22:21:33.268Z,4.00
2023-11-18T22:24:21.871Z,4.00
2023-11-18T22:27:15.283Z,4.00
2023-11-18T22:30:04.749Z,4.00
2023-11-18T22:32:54.455Z,4.10
2023-11-18T22:35:42.540Z,4.10
2023-11-18T22:38:29.832Z,4.20
2023-11-18T22:41:17.083Z,4.20
2023-11-18T22:44:04.639Z,4.20
2023-11-18T22:46:51.904Z,4.30
2023-11-18T22:49:41.801Z,4.30
2023-11-18T22:52:29.058Z,4.40
2023-11-18T22:55:17.786Z,4.40
2023-11-18T22:58:06.135Z,4.40
2023-11-18T23:00:56.371Z,4.50
2023-11-18T23:03:43.651Z,4.50
2023-11-18T23:06:30.888Z,4.60
2023-11-18T23:09:18.084Z,4.60
2023-11-18T23:12:07.190Z,4.60
2023-11-18T23:14:54.597Z,4.60
2023-11-18T23:17:41.893Z,4.70
2023-11-18T23:20:29.134Z,4.70
2023-11-18T23:23:18.165Z,4.70
2023-11-18T23:26:06.844Z,4.70
2023-11-18T23:28:54.266Z,4.80
2023-11-18T23:31:42.832Z,4.80
2023-11-18T23:34:30.147Z,4.80
2023-11-18T23:37:17.378Z,4.80
2023-11-18T23:40:10.957Z,4.90
2023-11-18T23:42:58.388Z,4.90
2023-11-18T23:45:45.802Z,4.90
2023-11-18T23:48:38.070Z,4.90
2023-11-18T23:51:25.365Z,4.90
2023-11-18T23:54:12.726Z,5.00
2023-11-18T23:56:59.922Z,5.00
2023-11-18T23:59:47.187Z,5.00
